Time;durP1;ratioP1;P1;durP2;ratioP2;P2;SDS_P1;SDS_P2;PMS_P1;PMS_P2;Temp;Humidity;BMP_temperature;BMP_pressure;BME280_temperature;BME280_humidity;BME280_pressure;Samples;Min_cycle;Max_cycle;Signal;HPM_P1;HPM_P2
2022/03/23 00:02:10;;;;;;;43.78;20.67;;;;;;;8.29;71.39;103043.00;5075442;28;20031;-67
2022/03/23 00:04:35;;;;;;;38.78;20.50;;;;;;;8.26;71.24;103041.47;5094067;28;20359;-66
2022/03/23 00:07:01;;;;;;;39.35;20.00;;;;;;;8.23;72.27;103038.28;5094067;28;20050;-67
2022/03/23 00:09:27;;;;;;;42.00;21.30;;;;;;;8.18;71.78;103032.69;5094200;28;20527;-67
2022/03/23 00:11:53;;;;;;;42.85;20.10;;;;;;;8.18;71.77;103032.69;5094081;28;20124;-66
2022/03/23 00:14:18;;;;;;;42.20;21.60;;;;;;;8.16;71.88;103032.81;5075804;28;20451;-66
2022/03/23 00:16:44;;;;;;;35.55;20.00;;;;;;;8.11;71.67;103035.75;5093791;28;20062;-67
2022/03/23 00:19:10;;;;;;;37.97;20.73;;;;;;;8.03;72.59;103026.94;5075908;28;20024;-66
2022/03/23 00:21:36;;;;;;;41.10;20.55;;;;;;;8.05;72.07;103036.19;5093877;28;20034;-67
2022/03/23 00:24:02;;;;;;;39.25;20.30;;;;;;;8.02;72.18;103030.44;5093813;28;20072;-67
2022/03/23 00:26:27;;;;;;;37.35;19.70;;;;;;;7.99;72.50;103039.22;5093943;28;20026;-66
2022/03/23 00:28:54;;;;;;;33.13;19.80;;;;;;;7.87;72.39;103043.53;5075700;28;20023;-67
2022/03/23 00:31:20;;;;;;;39.17;20.25;;;;;;;7.88;71.63;103039.19;5093540;28;20024;-66
2022/03/23 00:33:46;;;;;;;38.80;20.58;;;;;;;7.89;72.10;103041.66;5074498;28;20045;-67
2022/03/23 00:36:11;;;;;;;39.72;21.20;;;;;;;7.85;72.58;103036.84;5092966;28;20099;-66
2022/03/23 00:38:38;;;;;;;38.58;21.27;;;;;;;7.78;72.23;103039.06;5074663;28;20032;-66
2022/03/23 00:41:03;;;;;;;40.35;20.98;;;;;;;7.77;72.65;103040.00;5074908;28;20107;-67
2022/03/23 00:43:29;;;;;;;36.47;20.48;;;;;;;7.81;72.57;103032.88;5075555;28;20060;-66
2022/03/23 00:45:55;;;;;;;43.42;20.70;;;;;;;7.78;72.99;103039.06;5075585;28;20050;-66
2022/03/23 00:48:20;;;;;;;41.50;20.10;;;;;;;7.80;72.35;103034.63;5093915;28;20027;-66
2022/03/23 00:50:46;;;;;;;36.25;19.75;;;;;;;7.77;72.33;103032.28;5093554;28;20040;-66
2022/03/23 00:53:11;;;;;;;36.92;20.63;;;;;;;7.74;72.90;103035.09;5091947;28;20025;-66
2022/03/23 00:55:36;;;;;;;38.42;20.23;;;;;;;7.65;72.55;103034.00;5093417;28;20036;-66
2022/03/23 00:58:02;;;;;;;34.95;18.83;;;;;;;7.61;71.84;103037.72;5093461;28;20478;-66
2022/03/23 01:00:27;;;;;;;36.72;19.50;;;;;;;7.61;71.98;103036.91;5093622;28;20099;-66
2022/03/23 01:02:53;;;;;;;36.05;19.63;;;;;;;7.54;71.73;103036.53;5093772;28;20107;-66
2022/03/23 01:05:19;;;;;;;37.60;20.30;;;;;;;7.50;72.26;103034.28;5093352;28;20382;-66
2022/03/23 01:07:46;;;;;;;38.88;19.83;;;;;;;7.54;72.34;103033.13;5093352;28;20032;-66
2022/03/23 01:10:15;;;;;;;38.25;19.90;;;;;;;7.53;72.59;103028.91;5075277;28;20039;-66
2022/03/23 01:12:44;;;;;;;39.15;19.75;;;;;;;7.52;72.41;103028.09;5094120;28;20452;-66
2022/03/23 01:15:10;;;;;;;36.97;20.23;;;;;;;7.53;72.54;103024.59;5097573;28;20031;-67
2022/03/23 01:17:37;;;;;;;35.63;19.80;;;;;;;7.47;72.16;103025.03;5097499;28;20027;-66
2022/03/23 01:20:08;;;;;;;37.35;19.75;;;;;;;7.47;72.62;103020.72;5079443;28;20028;-66
2022/03/23 01:22:35;;;;;;;40.33;20.33;;;;;;;7.46;72.78;103029.38;5078782;28;20024;-66
2022/03/23 01:25:01;;;;;;;38.08;20.35;;;;;;;7.43;72.75;103018.47;5079364;28;20069;-66
2022/03/23 01:27:26;;;;;;;37.65;19.20;;;;;;;7.39;72.77;103014.47;5095794;28;20036;-66
2022/03/23 01:29:52;;;;;;;38.80;20.35;;;;;;;7.35;73.30;103015.63;5097254;28;20034;-67
2022/03/23 01:32:18;;;;;;;41.00;19.40;;;;;;;7.31;73.18;103011.63;5096829;28;20521;-65
2022/03/23 01:34:43;;;;;;;39.65;19.90;;;;;;;7.25;73.10;103012.94;5079055;28;20020;-65
2022/03/23 01:37:09;;;;;;;42.45;19.92;;;;;;;7.21;73.26;103014.88;5078724;28;20447;-66
2022/03/23 01:39:34;;;;;;;38.72;19.35;;;;;;;7.21;72.77;103017.44;5078826;28;20687;-65
2022/03/23 01:42:00;;;;;;;38.22;20.17;;;;;;;7.21;73.09;103008.91;5078383;28;20020;-66
2022/03/23 01:44:26;;;;;;;37.50;19.98;;;;;;;7.19;73.81;103014.19;5096673;28;20031;-66
2022/03/23 01:47:00;;;;;;;42.05;20.23;;;;;;;7.13;73.47;103017.16;5096663;28;20431;-66
2022/03/23 01:49:27;;;;;;;40.03;19.50;;;;;;;7.12;73.60;103018.09;5096597;28;20093;-66
2022/03/23 01:51:52;;;;;;;41.72;20.85;;;;;;;7.06;73.58;103013.41;5096816;28;20363;-66
2022/03/23 01:54:19;;;;;;;38.80;19.77;;;;;;;6.99;73.55;103012.19;5096763;28;20546;-65
2022/03/23 01:56:45;;;;;;;42.58;20.08;;;;;;;6.93;73.42;103005.75;5078606;28;20056;-66
2022/03/23 01:59:11;;;;;;;36.78;19.05;;;;;;;6.88;73.41;103007.00;5096284;28;20050;-66
2022/03/23 02:01:39;;;;;;;35.42;19.27;;;;;;;6.89;73.92;103006.88;5096666;28;20027;-66
2022/03/23 02:04:05;;;;;;;36.35;18.38;;;;;;;6.88;73.57;103001.88;5096266;28;20020;-66
2022/03/23 02:06:30;;;;;;;36.25;18.60;;;;;;;6.86;74.36;103001.16;5095091;28;20028;-67
2022/03/23 02:08:55;;;;;;;42.67;19.08;;;;;;;6.83;74.29;103004.75;5096240;28;20478;-66
2022/03/23 02:11:21;;;;;;;37.05;19.45;;;;;;;6.74;74.12;103006.22;5096138;28;20028;-65
2022/03/23 02:13:47;;;;;;;37.90;18.70;;;;;;;6.71;74.25;102997.91;5095383;28;20463;-66
2022/03/23 02:16:12;;;;;;;33.55;18.65;;;;;;;6.67;74.04;102997.28;5096209;28;20035;-65
2022/03/23 02:18:38;;;;;;;36.30;18.20;;;;;;;6.70;74.16;103001.38;5096054;28;20020;-65
2022/03/23 02:21:03;;;;;;;33.65;19.45;;;;;;;6.67;74.28;103002.41;5096603;28;20031;-66
2022/03/23 02:23:28;;;;;;;38.55;18.88;;;;;;;6.67;74.79;102996.47;5096019;28;20031;-66
2022/03/23 02:26:00;;;;;;;35.55;18.75;;;;;;;6.61;73.86;102995.13;5095256;28;20077;-66
2022/03/23 02:28:27;;;;;;;33.92;18.35;;;;;;;6.55;74.56;102993.81;5077948;28;20016;-65
2022/03/23 02:30:54;;;;;;;35.08;18.90;;;;;;;6.53;74.61;102989.69;5096235;28;20095;-65
2022/03/23 02:33:20;;;;;;;39.08;18.45;;;;;;;6.44;74.13;102980.06;5095810;28;20020;-65
2022/03/23 02:35:45;;;;;;;37.80;18.77;;;;;;;6.54;74.24;102996.50;5096076;28;20370;-66
2022/03/23 02:38:10;;;;;;;35.92;19.75;;;;;;;6.49;74.19;103006.28;5096090;28;20110;-65
2022/03/23 02:40:36;;;;;;;35.30;19.25;;;;;;;6.46;74.32;102999.59;5096009;28;20032;-66
2022/03/23 02:43:01;;;;;;;38.13;19.60;;;;;;;6.47;74.57;103003.81;5095996;28;20020;-66
2022/03/23 02:45:26;;;;;;;39.00;19.58;;;;;;;6.50;74.63;102997.63;5095727;28;20024;-66
2022/03/23 02:47:52;;;;;;;33.65;19.42;;;;;;;6.41;74.39;103003.41;5077469;28;20050;-67
2022/03/23 02:50:18;;;;;;;38.78;19.50;;;;;;;6.37;74.19;102991.72;5077254;28;20136;-66
2022/03/23 03:03:55;;;;;;;39.22;20.00;;;;;;;6.20;74.95;102997.97;5095387;28;20402;-65
2022/03/23 03:06:20;;;;;;;40.60;20.98;;;;;;;6.18;75.32;102998.06;5076983;28;20123;-66
2022/03/23 03:08:47;;;;;;;36.83;19.48;;;;;;;6.16;74.97;102997.38;5095241;28;20047;-66
2022/03/23 03:11:13;;;;;;;43.60;20.58;;;;;;;6.05;75.45;102999.84;5076862;28;20023;-66
2022/03/23 03:13:40;;;;;;;39.60;19.85;;;;;;;5.97;75.57;103005.47;5094937;28;20515;-66
2022/03/23 03:16:05;;;;;;;42.00;20.23;;;;;;;5.86;75.85;103002.75;5095315;28;20096;-67
2022/03/23 03:18:32;;;;;;;38.10;20.15;;;;;;;5.88;75.75;103006.06;5076769;28;20405;-66
2022/03/23 03:20:58;;;;;;;40.80;20.75;;;;;;;5.92;75.71;102996.41;5095087;28;20020;-66
2022/03/23 03:23:25;;;;;;;39.92;19.25;;;;;;;6.04;75.38;103011.84;5076754;28;20048;-67
2022/03/23 03:25:51;;;;;;;35.88;18.80;;;;;;;6.08;75.83;103005.59;5093382;28;20035;-68
2022/03/23 03:28:16;;;;;;;44.72;19.67;;;;;;;6.00;75.23;103007.84;5094862;28;20471;-64
2022/03/23 03:30:41;;;;;;;39.08;19.83;;;;;;;6.07;75.30;103006.53;5094713;28;20024;-66
2022/03/23 03:33:07;;;;;;;39.55;20.38;;;;;;;5.99;74.89;103002.81;5076569;28;20069;-65
2022/03/23 03:35:32;;;;;;;40.42;20.10;;;;;;;6.00;74.98;103007.84;5076556;28;20028;-66
2022/03/23 03:37:58;;;;;;;39.35;19.50;;;;;;;6.04;75.36;103008.44;5094625;28;20032;-65
2022/03/23 03:40:24;;;;;;;39.33;19.73;;;;;;;6.00;75.70;103012.16;5094678;28;20386;-66
2022/03/23 03:42:49;;;;;;;39.42;20.13;;;;;;;5.98;76.07;103009.69;5094650;28;20020;-66
2022/03/23 03:45:14;;;;;;;39.72;19.73;;;;;;;5.94;75.82;103010.00;5076449;28;20093;-65
2022/03/23 03:47:40;;;;;;;42.40;20.38;;;;;;;5.94;75.97;103005.69;5094865;28;20028;-66
2022/03/23 03:50:05;;;;;;;37.20;20.52;;;;;;;5.94;75.78;103012.56;5092772;28;20052;-66
2022/03/23 03:52:30;;;;;;;38.83;20.30;;;;;;;5.96;75.76;103005.59;5094323;28;20547;-64
2022/03/23 03:54:56;;;;;;;38.83;19.73;;;;;;;5.91;76.34;103016.13;5094479;28;20020;-65
2022/03/23 03:57:21;;;;;;;40.97;20.70;;;;;;;5.91;76.43;103015.31;5093202;28;20035;-65
2022/03/23 03:59:47;;;;;;;39.65;20.58;;;;;;;5.88;75.49;103018.88;5076147;28;20051;-65
2022/03/23 04:02:14;;;;;;;38.67;20.33;;;;;;;5.85;75.29;103012.22;5076017;28;20024;-66
2022/03/23 04:04:39;;;;;;;39.42;20.50;;;;;;;5.89;75.71;103013.63;5094376;28;20020;-66
2022/03/23 04:07:04;;;;;;;43.95;20.35;;;;;;;5.84;75.90;103014.88;5094190;28;20032;-65
2022/03/23 04:09:29;;;;;;;38.33;19.92;;;;;;;5.84;76.42;103013.16;5094514;28;20093;-66
2022/03/23 04:11:55;;;;;;;42.58;20.55;;;;;;;5.80;76.34;103019.38;5075774;28;20024;-66
2022/03/23 04:14:20;;;;;;;43.08;20.52;;;;;;;5.80;76.34;103016.81;5094015;28;20028;-65
2022/03/23 04:16:45;;;;;;;39.70;20.90;;;;;;;5.79;76.27;103022.88;5094031;28;20064;-67
2022/03/23 04:19:10;;;;;;;38.63;20.52;;;;;;;5.78;76.09;103020.41;5093782;28;20027;-66
2022/03/23 04:21:36;;;;;;;43.50;21.20;;;;;;;5.78;76.11;103023.81;5094012;28;20032;-66
2022/03/23 04:24:01;;;;;;;40.38;21.10;;;;;;;5.75;76.46;103021.41;5093941;28;20055;-66
2022/03/23 04:26:26;;;;;;;40.08;20.80;;;;;;;5.78;75.98;103025.53;5075864;28;20020;-66
2022/03/23 04:28:52;;;;;;;44.83;21.85;;;;;;;5.80;75.70;103024.53;5075833;28;20114;-66
2022/03/23 04:31:17;;;;;;;41.22;20.55;;;;;;;5.74;76.20;103019.78;5075633;28;20106;-66
2022/03/23 04:33:43;;;;;;;41.70;20.52;;;;;;;5.79;75.72;103024.63;5093688;28;20463;-66
2022/03/23 04:36:09;;;;;;;52.50;21.67;;;;;;;5.71;75.85;103029.44;5094118;28;20063;-66
2022/03/23 04:38:34;;;;;;;40.58;20.25;;;;;;;5.64;76.03;103026.47;5093691;28;20493;-66
2022/03/23 04:40:59;;;;;;;51.35;21.67;;;;;;;5.60;76.11;103032.69;5075624;28;20028;-66
2022/03/23 04:43:25;;;;;;;41.72;20.77;;;;;;;5.51;75.80;103030.72;5075547;28;20012;-66
2022/03/23 04:45:50;;;;;;;40.15;20.50;;;;;;;5.40;76.03;103029.66;5093320;28;20031;-66
2022/03/23 04:48:15;;;;;;;42.45;21.02;;;;;;;5.47;76.50;103027.53;5092955;28;20028;-66
2022/03/23 04:50:41;;;;;;;38.03;20.30;;;;;;;5.49;76.15;103035.94;5075205;28;20043;-65
2022/03/23 04:53:06;;;;;;;41.95;20.88;;;;;;;5.45;76.17;103033.69;5075389;28;20111;-65
2022/03/23 04:55:32;;;;;;;39.33;20.42;;;;;;;5.37;76.57;103036.72;5093672;28;20099;-65
2022/03/23 04:57:59;;;;;;;39.53;20.02;;;;;;;5.39;76.92;103038.28;5093340;28;20035;-66
2022/03/23 05:00:24;;;;;;;43.20;21.63;;;;;;;5.41;76.33;103045.88;5075423;28;20020;-65
2022/03/23 05:02:49;;;;;;;38.90;19.50;;;;;;;5.31;76.64;103037.13;5075349;28;20020;-65
2022/03/23 05:05:15;;;;;;;40.30;20.02;;;;;;;5.28;76.13;103019.38;5093542;28;20036;-66
2022/03/23 05:07:42;;;;;;;42.17;20.88;;;;;;;5.43;76.01;103046.59;5075489;28;20020;-66
2022/03/23 05:10:09;;;;;;;42.40;20.70;;;;;;;5.34;75.95;103045.44;5092243;28;20111;-66
2022/03/23 05:12:36;;;;;;;46.67;20.33;;;;;;;5.32;76.88;103043.88;5093406;28;20078;-65
2022/03/23 05:15:02;;;;;;;41.90;21.13;;;;;;;5.32;76.94;103042.16;5092125;28;20034;-67
2022/03/23 05:17:27;;;;;;;36.60;19.90;;;;;;;5.33;76.69;103045.53;5093250;28;20455;-67
2022/03/23 05:19:52;;;;;;;39.45;20.75;;;;;;;5.27;77.08;103051.88;5093250;28;20372;-65
2022/03/23 05:22:17;;;;;;;44.33;21.23;;;;;;;5.33;76.81;103042.97;5093073;28;20020;-66
2022/03/23 05:24:43;;;;;;;41.80;20.35;;;;;;;5.31;76.88;103047.38;5093261;28;20103;-66
2022/03/23 05:27:08;;;;;;;48.28;20.50;;;;;;;5.26;77.33;103050.22;5093461;28;20410;-66
2022/03/23 05:29:36;;;;;;;38.42;21.15;;;;;;;5.28;77.31;103053.50;5093435;28;20028;-66
2022/03/23 05:32:03;;;;;;;41.92;20.10;;;;;;;5.25;77.27;103058.03;5093186;28;20107;-65
2022/03/23 05:34:28;;;;;;;42.15;20.35;;;;;;;5.25;77.14;103051.16;5075108;28;20080;-66
2022/03/23 05:36:54;;;;;;;43.17;20.77;;;;;;;5.29;77.15;103056.91;5075230;28;20020;-66
2022/03/23 05:39:20;;;;;;;36.70;19.42;;;;;;;5.24;77.32;103054.63;5092690;28;20028;-67
2022/03/23 05:41:45;;;;;;;44.40;20.55;;;;;;;5.25;77.38;103055.47;5092171;28;20094;-65
2022/03/23 05:44:10;;;;;;;42.78;20.27;;;;;;;5.24;76.98;103058.94;5074175;28;20024;-67
2022/03/23 05:46:36;;;;;;;37.50;19.92;;;;;;;5.27;76.68;103061.31;5074245;28;20026;-66
2022/03/23 05:49:02;;;;;;;46.10;21.75;;;;;;;5.08;77.28;103029.13;5074515;28;20086;-65
2022/03/23 05:51:27;;;;;;;42.97;20.02;;;;;;;5.32;76.48;103049.84;5092796;28;20028;-66
2022/03/23 05:53:52;;;;;;;41.33;20.85;;;;;;;5.30;76.44;103056.81;5093116;28;20024;-65
2022/03/23 05:56:18;;;;;;;39.17;20.95;;;;;;;5.34;76.72;103062.56;5075142;28;20028;-65
2022/03/23 05:58:43;;;;;;;35.85;20.05;;;;;;;5.32;76.65;103054.97;5074767;28;20028;-66
2022/03/23 06:01:09;;;;;;;38.50;19.98;;;;;;;5.32;76.00;103064.41;5094556;28;20077;-65
2022/03/23 06:03:35;;;;;;;37.92;19.83;;;;;;;5.36;76.51;103061.56;5096895;28;20023;-65
2022/03/23 06:06:01;;;;;;;43.50;21.17;;;;;;;5.34;76.31;103060.81;5095760;28;20028;-65
2022/03/23 06:08:26;;;;;;;40.53;20.25;;;;;;;5.27;76.22;103041.63;5098043;28;20418;-66
2022/03/23 06:10:52;;;;;;;40.22;20.10;;;;;;;5.43;76.94;103067.09;5079968;28;20028;-66
2022/03/23 06:13:17;;;;;;;38.05;19.52;;;;;;;5.52;76.60;103061.38;5078284;28;20019;-65
2022/03/23 06:15:42;;;;;;;44.50;22.05;;;;;;;5.54;76.40;103062.13;5097667;28;20020;-66
2022/03/23 06:18:08;;;;;;;43.13;20.77;;;;;;;5.52;76.27;103060.56;5098085;28;20471;-66
2022/03/23 06:20:33;;;;;;;43.33;21.45;;;;;;;5.54;76.27;103067.25;5096248;28;20512;-66
2022/03/23 06:22:58;;;;;;;42.58;21.23;;;;;;;5.63;76.67;103063.28;5096025;28;20020;-66
2022/03/23 06:25:25;;;;;;;45.22;21.33;;;;;;;5.68;76.00;103076.63;5077549;28;20057;-66
2022/03/23 06:27:51;;;;;;;43.92;21.33;;;;;;;5.66;75.78;103076.72;5096131;28;20524;-66
2022/03/23 06:30:16;;;;;;;38.47;20.58;;;;;;;5.74;76.20;103071.09;5095745;28;20056;-66
2022/03/23 06:32:41;;;;;;;42.20;21.23;;;;;;;5.84;76.35;103077.31;5095791;28;20024;-67
2022/03/23 06:35:07;;;;;;;44.05;20.75;;;;;;;5.93;75.99;103075.91;5094598;28;20023;-66
2022/03/23 06:37:32;;;;;;;39.45;20.40;;;;;;;5.99;76.05;103084.94;5095622;28;20020;-66
2022/03/23 06:39:57;;;;;;;43.22;22.25;;;;;;;6.11;74.94;103089.28;5095852;28;20095;-66
2022/03/23 06:42:23;;;;;;;41.20;22.13;;;;;;;6.19;75.00;103081.91;5095660;28;20012;-66
2022/03/23 06:44:49;;;;;;;46.75;22.45;;;;;;;6.27;74.50;103087.34;5077548;28;20019;-65
2022/03/23 06:47:15;;;;;;;45.70;22.88;;;;;;;6.31;74.37;103083.63;5094253;28;20076;-65
2022/03/23 06:49:40;;;;;;;49.05;22.30;;;;;;;6.52;74.07;103078.78;5094970;28;20105;-65
2022/03/23 06:52:06;;;;;;;46.22;22.85;;;;;;;6.42;73.36;103051.28;5094041;28;20036;-65
2022/03/23 06:54:31;;;;;;;48.03;22.80;;;;;;;6.74;72.77;103091.00;5095237;28;20077;-65
2022/03/23 06:56:56;;;;;;;45.88;22.52;;;;;;;6.92;72.79;103094.06;5076730;28;20434;-66
2022/03/23 06:59:22;;;;;;;54.97;22.83;;;;;;;7.17;71.41;103092.38;5095025;28;20024;-66
2022/03/23 07:01:47;;;;;;;43.15;21.95;;;;;;;7.35;70.51;103100.53;5093580;28;20468;-66
2022/03/23 07:04:13;;;;;;;43.47;22.23;;;;;;;7.44;70.60;103100.69;5076902;28;20443;-66
2022/03/23 07:06:38;;;;;;;45.38;23.33;;;;;;;7.73;70.10;103099.53;5076742;28;20028;-66
2022/03/23 07:11:47;;;;;;;44.22;22.27;;;;;;;7.82;68.87;103078.25;5093504;28;20042;-67
2022/03/23 07:14:13;;;;;;;47.78;22.30;;;;;;;8.29;68.50;103103.06;5093483;28;20510;-68
2022/03/23 07:16:38;;;;;;;49.90;23.33;;;;;;;8.50;68.21;103099.84;5093097;28;20032;-66
2022/03/23 07:19:04;;;;;;;41.35;21.67;;;;;;;8.61;67.92;103105.00;5093130;28;20054;-66
2022/03/23 07:21:30;;;;;;;49.00;22.95;;;;;;;8.76;66.66;103108.97;5093074;28;20024;-67
2022/03/23 07:23:56;;;;;;;44.67;22.92;;;;;;;9.02;65.09;103113.88;5092736;28;20459;-68
2022/03/23 07:26:22;;;;;;;42.33;22.05;;;;;;;9.17;64.34;103104.94;5090988;28;20076;-69
2022/03/23 07:28:48;;;;;;;47.80;22.38;;;;;;;9.39;63.67;103108.41;5074811;28;20032;-69
2022/03/23 07:31:13;;;;;;;42.47;22.55;;;;;;;9.60;63.07;103111.03;5093392;28;20118;-68
2022/03/23 07:33:38;;;;;;;48.40;22.02;;;;;;;12.73;55.84;103102.75;5093373;28;20024;-69
2022/03/23 07:36:04;;;;;;;40.03;21.15;;;;;;;16.59;43.21;103109.25;5093328;28;20023;-69
2022/03/23 07:38:29;;;;;;;40.58;21.55;;;;;;;18.43;40.14;103101.22;5092231;28;20027;-69
2022/03/23 07:40:55;;;;;;;38.53;21.65;;;;;;;19.08;37.85;103101.38;5093739;28;20028;-67
2022/03/23 07:43:20;;;;;;;40.85;22.35;;;;;;;20.03;36.59;103106.16;5093951;28;20074;-68
2022/03/23 07:45:49;;;;;;;40.63;21.73;;;;;;;20.42;35.25;103106.50;5077572;28;20378;-69
2022/03/23 07:48:15;;;;;;;38.13;21.38;;;;;;;20.69;33.09;103105.63;5094392;28;20028;-69
2022/03/23 07:50:41;;;;;;;39.60;21.60;;;;;;;20.90;32.14;103111.75;5076236;28;20131;-68
2022/03/23 07:53:06;;;;;;;38.95;21.55;;;;;;;20.94;32.18;103107.69;5094463;28;20111;-68
2022/03/23 07:55:31;;;;;;;40.97;20.50;;;;;;;21.60;32.50;103114.81;5093107;28;20077;-70
2022/03/23 07:57:57;;;;;;;36.40;21.10;;;;;;;21.60;30.94;103113.00;5093770;28;20031;-69
2022/03/23 08:00:22;;;;;;;33.38;21.40;;;;;;;21.83;29.92;103106.50;5074658;28;20024;-69
2022/03/23 08:02:48;;;;;;;29.40;19.55;;;;;;;21.74;30.49;103099.84;5074958;28;20020;-68
2022/03/23 08:05:13;;;;;;;32.60;20.00;;;;;;;22.00;30.11;103112.13;5074491;28;20016;-68
2022/03/23 08:07:38;;;;;;;37.40;19.83;;;;;;;21.25;30.19;103108.94;5092913;28;20027;-68
2022/03/23 08:10:04;;;;;;;40.00;20.50;;;;;;;21.76;29.90;103097.81;5092634;28;20050;-69
2022/03/23 08:12:30;;;;;;;32.78;19.52;;;;;;;22.38;28.45;103114.84;5092609;28;20367;-68
2022/03/23 08:14:55;;;;;;;29.85;19.02;;;;;;;21.48;28.71;103119.91;5074244;28;20020;-67
2022/03/23 08:17:20;;;;;;;30.65;19.33;;;;;;;21.11;28.70;103123.91;5092235;28;20068;-68
2022/03/23 08:22:29;;;;;;;36.17;19.33;;;;;;;21.27;28.08;103120.09;5091442;28;20062;-67
2022/03/23 08:24:55;;;;;;;34.75;19.55;;;;;;;22.00;27.33;103105.03;5092264;28;20051;-68
2022/03/23 08:27:20;;;;;;;31.03;19.70;;;;;;;22.03;27.09;103117.78;5091479;28;20020;-69
2022/03/23 08:29:45;;;;;;;28.65;19.13;;;;;;;22.38;27.18;103108.78;5091304;28;20282;-71
2022/03/23 08:32:10;;;;;;;30.67;18.77;;;;;;;22.66;25.47;103111.06;5090603;28;20049;-66
2022/03/23 08:34:36;;;;;;;34.23;18.93;;;;;;;22.91;25.56;103111.91;5073011;28;20326;-69
2022/03/23 08:37:01;;;;;;;31.75;19.00;;;;;;;22.45;25.77;103113.00;5090927;28;20274;-69
2022/03/23 08:39:26;;;;;;;31.95;18.75;;;;;;;22.86;24.85;103113.59;5072949;28;20165;-68
2022/03/23 08:41:52;;;;;;;28.00;17.43;;;;;;;23.23;24.16;103113.75;5073211;28;20024;-69
2022/03/23 08:44:17;;;;;;;26.25;17.10;;;;;;;23.04;24.22;103112.88;5091913;28;20806;-66
2022/03/23 08:46:43;;;;;;;26.10;17.70;;;;;;;23.31;23.36;103122.22;5075779;28;20020;-67
2022/03/23 08:49:09;;;;;;;27.83;18.45;;;;;;;22.78;23.86;103109.34;5093465;28;20290;-67
2022/03/23 08:51:34;;;;;;;27.50;18.33;;;;;;;23.38;24.16;103117.66;5075779;28;20138;-68
2022/03/23 08:53:59;;;;;;;27.58;18.35;;;;;;;24.07;23.25;103130.81;5093594;28;20290;-68
2022/03/23 08:56:25;;;;;;;27.35;18.33;;;;;;;22.59;24.54;103126.13;5075397;28;20047;-67
2022/03/23 08:58:51;;;;;;;29.50;18.85;;;;;;;23.78;24.23;103122.59;5093510;28;20054;-69
2022/03/23 09:01:16;;;;;;;29.48;19.17;;;;;;;22.66;25.27;103124.25;5075621;28;20063;-69
2022/03/23 09:03:43;;;;;;;27.48;19.27;;;;;;;23.82;24.29;103128.25;5092248;28;20027;-69
2022/03/23 09:06:09;;;;;;;28.63;19.15;;;;;;;24.05;23.92;103131.06;5093350;28;20028;-68
2022/03/23 09:08:34;;;;;;;27.50;18.80;;;;;;;24.10;23.38;103128.53;5093372;28;20020;-68
2022/03/23 09:10:59;;;;;;;27.95;19.13;;;;;;;24.27;24.19;103123.47;5093929;28;20088;-69
2022/03/23 09:13:25;;;;;;;32.30;20.38;;;;;;;25.31;22.93;103138.31;5093016;28;20024;-71
2022/03/23 09:15:50;;;;;;;38.33;20.05;;;;;;;25.55;21.92;103128.53;5077240;28;20050;-69
2022/03/23 09:18:15;;;;;;;28.48;19.25;;;;;;;24.01;23.69;103127.22;5076387;28;20028;-68
2022/03/23 09:20:41;;;;;;;32.78;20.13;;;;;;;25.31;22.98;103133.00;5076793;28;20024;-69
2022/03/23 09:23:08;;;;;;;35.70;20.52;;;;;;;25.27;22.87;103126.59;5077948;28;20073;-68
2022/03/23 09:25:33;;;;;;;34.42;19.83;;;;;;;25.30;23.52;103110.25;5075707;28;20023;-70
2022/03/23 09:27:59;;;;;;;41.58;20.67;;;;;;;24.77;23.34;103131.19;5074120;28;20088;-68
2022/03/23 09:30:24;;;;;;;30.60;20.90;;;;;;;24.86;23.56;103141.41;5074761;28;20024;-68
2022/03/23 09:32:50;;;;;;;30.88;19.60;;;;;;;25.20;24.08;103137.25;5074725;28;20052;-68
2022/03/23 09:35:16;;;;;;;33.78;20.60;;;;;;;23.48;23.63;103132.19;5078223;28;20424;-67
2022/03/23 09:37:48;;;;;;;34.95;20.33;;;;;;;23.33;23.36;103127.25;5095607;28;20379;-69
2022/03/23 09:40:24;;;;;;;36.93;19.43;;;;;;;21.59;26.48;103121.09;5078647;28;20035;-69
2022/03/23 09:42:51;;;;;;;34.50;19.45;;;;;;;20.83;26.68;103121.41;5097086;28;20392;-69
2022/03/23 09:45:59;;;;;;;29.40;18.95;;;;;;;21.34;26.84;103119.06;5078915;28;20032;-66
2022/03/23 09:48:11;;;;;;;38.22;19.52;;;;;;;19.87;28.44;103118.75;5088228;28;20506;-68
2022/03/23 09:50:39;;;;;;;36.42;18.58;;;;;;;20.00;28.92;103117.03;5077657;28;20054;-67
2022/03/23 09:53:05;;;;;;;32.63;19.05;;;;;;;20.49;29.09;103115.25;5096343;28;20032;-67
2022/03/23 09:55:31;;;;;;;32.13;18.90;;;;;;;20.36;28.50;103120.44;5078192;28;20107;-67
2022/03/23 09:57:59;;;;;;;30.67;19.02;;;;;;;19.89;29.28;103114.13;5096477;28;20118;-69
2022/03/23 10:00:28;;;;;;;36.13;18.83;;;;;;;19.87;29.14;103116.13;5094856;28;20024;-70
2022/03/23 10:03:11;;;;;;;32.55;18.63;;;;;;;19.45;28.26;103126.50;5076712;28;20069;-67
2022/03/23 10:05:58;;;;;;;29.15;18.15;;;;;;;20.63;28.76;103114.31;5095390;28;20020;-67
2022/03/23 10:08:42;;;;;;;31.65;18.42;;;;;;;20.68;27.31;103127.63;5095438;28;20745;-68
2022/03/23 10:11:45;;;;;;;33.38;18.15;;;;;;;20.04;28.01;103112.19;5094541;28;20065;-68
2022/03/23 10:14:35;;;;;;;31.83;18.30;;;;;;;20.33;29.28;103124.25;5095190;28;20089;-68
2022/03/23 10:17:32;;;;;;;35.05;17.45;;;;;;;20.36;26.00;103109.94;5095205;28;20020;-68
2022/03/23 10:20:00;;;;;;;30.58;16.92;;;;;;;19.81;27.22;103110.66;5095293;28;20028;-69
2022/03/23 10:22:27;;;;;;;36.35;16.92;;;;;;;19.60;27.69;103114.09;5094838;28;20026;-68
2022/03/23 10:24:52;;;;;;;32.90;17.30;;;;;;;21.18;26.99;103115.00;5092968;28;20028;-67
2022/03/23 10:27:20;;;;;;;30.35;16.55;;;;;;;20.62;27.55;103109.25;5095167;28;20028;-68
2022/03/23 10:29:48;;;;;;;32.33;15.32;;;;;;;21.18;26.86;103114.22;5076839;28;20024;-68
2022/03/23 10:32:15;;;;;;;32.33;16.10;;;;;;;21.46;28.68;103100.06;5077577;28;20107;-67
2022/03/23 10:34:47;;;;;;;32.50;16.33;;;;;;;21.83;26.06;103102.03;5095935;28;20047;-67
2022/03/23 10:37:15;;;;;;;41.97;15.50;;;;;;;20.88;26.29;103080.38;5095990;28;20016;-68
2022/03/23 10:39:41;;;;;;;29.65;14.48;;;;;;;20.73;27.44;103109.47;5095951;28;20467;-69
2022/03/23 10:42:16;;;;;;;35.80;14.77;;;;;;;21.22;25.61;103101.47;5077350;28;20047;-67
2022/03/23 10:44:42;;;;;;;36.08;14.10;;;;;;;20.51;26.55;103105.31;5093873;28;20038;-67
2022/03/23 10:47:20;;;;;;;32.15;15.32;;;;;;;20.99;26.55;103104.47;5094789;28;20055;-67
2022/03/23 10:49:45;;;;;;;44.30;15.32;;;;;;;21.74;26.71;103089.31;5095488;28;20051;-68
2022/03/23 10:52:18;;;;;;;30.23;14.80;;;;;;;21.69;27.05;103084.66;5077248;28;20028;-67
2022/03/23 10:54:55;;;;;;;34.10;15.05;;;;;;;22.47;25.31;103086.44;5095968;28;20031;-68
2022/03/23 10:57:20;;;;;;;34.70;14.55;;;;;;;21.26;25.35;103085.09;5095232;28;20093;-68
2022/03/23 10:59:46;;;;;;;36.47;14.48;;;;;;;21.38;24.93;103091.38;5094494;28;20475;-68
2022/03/23 11:02:12;;;;;;;37.05;14.40;;;;;;;20.42;26.28;103088.13;5095069;28;20024;-68
2022/03/23 11:04:46;;;;;;;26.08;13.35;;;;;;;21.18;26.52;103088.72;5094389;28;20024;-68
2022/03/23 11:07:35;;;;;;;32.35;12.00;;;;;;;20.77;25.29;103090.69;5095126;28;20024;-67
2022/03/23 11:15:47;;;;;;;36.17;15.05;;;;;;;20.99;26.82;103093.97;5096519;28;20039;-68
2022/03/23 11:18:15;;;;;;;33.20;14.45;;;;;;;20.84;26.46;103091.53;5095098;28;20083;-68
2022/03/23 11:20:48;;;;;;;35.08;13.95;;;;;;;21.49;25.70;103084.72;5076739;28;20440;-68
2022/03/23 11:23:30;;;;;;;31.55;13.30;;;;;;;21.21;25.52;103082.25;5076838;28;20425;-68
2022/03/23 11:26:01;;;;;;;32.47;13.43;;;;;;;22.13;25.99;103071.78;5076260;28;20126;-69
2022/03/23 11:28:28;;;;;;;37.90;13.18;;;;;;;22.45;23.96;103078.75;5093407;28;20387;-68
2022/03/23 11:30:55;;;;;;;37.22;13.85;;;;;;;22.70;24.77;103083.25;5075360;28;20410;-68
2022/03/23 11:33:23;;;;;;;33.85;13.27;;;;;;;21.77;24.28;103073.91;5093577;28;20509;-68
2022/03/23 11:35:50;;;;;;;35.42;13.43;;;;;;;22.47;25.06;103076.72;5076237;28;20054;-68